Time;durP1;ratioP1;P1;durP2;ratioP2;P2;SDS_P1;SDS_P2;PMS_P1;PMS_P2;Temp;Humidity;BMP_temperature;BMP_pressure;BME280_temperature;BME280_humidity;BME280_pressure;Samples;Min_cycle;Max_cycle;Signal;HPM_P1;HPM_P2
2022/01/28 00:00:19;;;;;;;16.30;3.30;;;7.20;99.90;;;;;;5063644;28;20036;-75
2022/01/28 00:03:00;;;;;;;21.02;3.10;;;7.20;99.90;;;;;;5071932;28;20366;-76
2022/01/28 00:05:25;;;;;;;16.08;3.40;;;7.20;99.90;;;;;;5066256;28;20028;-75
2022/01/28 00:07:53;;;;;;;25.00;3.97;;;7.20;99.90;;;;;;5078714;28;20033;-75
2022/01/28 00:10:21;;;;;;;24.98;3.60;;;7.20;99.90;;;;;;5079651;28;20020;-75
2022/01/28 00:39:15;;;;;;;18.77;3.30;;;7.20;99.90;;;;;;5075041;28;20036;-75
2022/01/28 00:41:40;;;;;;;26.95;3.92;;;7.20;99.90;;;;;;5072536;28;20028;-75
2022/01/28 00:44:06;;;;;;;19.08;3.58;;;7.20;99.90;;;;;;5071386;28;20033;-75
2022/01/28 00:46:32;;;;;;;20.10;4.47;;;7.20;99.90;;;;;;5070743;28;20028;-75
2022/01/28 00:48:57;;;;;;;21.08;3.20;;;7.10;99.90;;;;;;5054208;28;20020;-74
2022/01/28 00:51:23;;;;;;;19.40;3.35;;;7.10;99.90;;;;;;5070531;28;20971;-74
2022/01/28 00:53:49;;;;;;;15.98;2.97;;;7.00;99.90;;;;;;5071264;28;20040;-74
2022/01/28 00:56:14;;;;;;;29.48;4.13;;;7.00;99.90;;;;;;5054494;28;20108;-74
2022/01/28 00:58:40;;;;;;;20.27;3.78;;;6.90;99.90;;;;;;5070362;28;20025;-74
2022/01/28 01:01:06;;;;;;;24.75;3.50;;;6.90;99.90;;;;;;5075881;28;20111;-74
2022/01/28 01:03:31;;;;;;;24.48;3.13;;;6.90;99.90;;;;;;5071321;28;20529;-74
2022/01/28 01:05:57;;;;;;;13.73;3.55;;;7.00;99.90;;;;;;5070270;28;20032;-75
2022/01/28 01:08:22;;;;;;;22.98;2.88;;;6.90;99.90;;;;;;5070397;28;20025;-75
2022/01/28 01:10:50;;;;;;;22.17;3.97;;;6.70;99.90;;;;;;5072098;28;20146;-74
2022/01/28 01:13:16;;;;;;;18.08;3.10;;;6.80;99.90;;;;;;5052377;28;20392;-75
2022/01/28 01:15:45;;;;;;;16.90;3.05;;;6.80;99.90;;;;;;5070189;28;20021;-75
2022/01/28 01:19:14;;;;;;;20.42;3.33;;;6.80;99.90;;;;;;5068657;28;20426;-75
2022/01/28 01:21:07;;;;;;;16.42;2.85;;;6.80;99.90;;;;;;5055632;28;20071;-75
2022/01/28 01:23:37;;;;;;;11.20;2.97;;;6.80;99.90;;;;;;5069516;28;20035;-75
2022/01/28 01:28:33;;;;;;;16.23;2.90;;;6.90;99.90;;;;;;5070566;28;20495;-74
2022/01/28 01:31:03;;;;;;;17.42;3.08;;;6.90;99.90;;;;;;5050324;28;20086;-75
2022/01/28 01:33:32;;;;;;;15.43;2.33;;;6.90;99.90;;;;;;5068152;28;20035;-75
2022/01/28 01:36:01;;;;;;;22.10;3.08;;;6.80;99.90;;;;;;5053252;28;20029;-75
2022/01/28 01:38:32;;;;;;;17.00;2.70;;;6.80;99.90;;;;;;5067696;28;20033;-75
2022/01/28 01:41:02;;;;;;;15.18;2.80;;;6.90;99.90;;;;;;5074682;28;20385;-74
2022/01/28 01:43:52;;;;;;;15.98;2.38;;;6.90;99.90;;;;;;5073905;28;20047;-74
2022/01/28 01:52:05;;;;;;;13.05;2.92;;;6.80;99.90;;;;;;5072499;28;20036;-75
2022/01/28 01:54:41;;;;;;;17.77;3.17;;;6.80;99.90;;;;;;5073448;28;20103;-75
2022/01/28 01:57:10;;;;;;;12.48;2.95;;;6.90;99.90;;;;;;5069256;28;20444;-75
2022/01/28 01:59:37;;;;;;;14.13;2.47;;;6.90;99.90;;;;;;5074801;28;20074;-74
2022/01/28 02:02:04;;;;;;;14.25;2.15;;;6.90;99.90;;;;;;5074195;28;20082;-75
2022/01/28 02:04:29;;;;;;;10.07;2.60;;;6.90;99.90;;;;;;5071275;28;20480;-75
2022/01/28 02:06:55;;;;;;;18.30;3.20;;;6.90;99.90;;;;;;5072492;28;20089;-75
2022/01/28 02:09:21;;;;;;;16.17;2.28;;;6.90;99.90;;;;;;5070821;28;20103;-75
2022/01/28 02:11:47;;;;;;;11.05;2.15;;;6.90;99.90;;;;;;5073803;28;20032;-75
2022/01/28 02:14:12;;;;;;;13.85;2.67;;;6.90;99.90;;;;;;5074060;28;20056;-75
2022/01/28 02:16:38;;;;;;;12.40;3.00;;;6.90;99.90;;;;;;5071642;28;20032;-75
2022/01/28 02:19:04;;;;;;;19.80;2.70;;;6.90;99.90;;;;;;5073325;28;20031;-75
2022/01/28 02:21:43;;;;;;;17.17;2.60;;;6.90;99.90;;;;;;5073350;28;20032;-74
2022/01/28 02:24:09;;;;;;;18.67;2.80;;;6.90;99.90;;;;;;5071969;28;20092;-75
2022/01/28 02:26:36;;;;;;;17.33;2.42;;;6.90;99.90;;;;;;5072769;28;20036;-75
2022/01/28 02:29:09;;;;;;;16.73;2.50;;;6.90;99.90;;;;;;5072275;28;20024;-75
2022/01/28 02:31:35;;;;;;;20.30;2.92;;;6.90;99.90;;;;;;5071895;28;20395;-75
2022/01/28 02:34:00;;;;;;;17.83;2.92;;;6.90;99.90;;;;;;5074766;28;20100;-75
2022/01/28 02:36:27;;;;;;;17.77;3.25;;;6.90;99.90;;;;;;5074102;28;20537;-75
2022/01/28 02:38:53;;;;;;;22.00;2.92;;;6.90;99.90;;;;;;5071423;28;20081;-75
2022/01/28 02:41:19;;;;;;;7.90;2.35;;;6.90;99.90;;;;;;5070675;28;20033;-75
2022/01/28 02:44:05;;;;;;;17.40;3.10;;;6.90;99.90;;;;;;5073072;28;20095;-74
2022/01/28 02:46:33;;;;;;;15.30;3.08;;;6.90;99.90;;;;;;5068501;28;20162;-74
2022/01/28 02:49:06;;;;;;;20.23;3.17;;;6.90;99.90;;;;;;5073845;28;20028;-75
2022/01/28 02:51:31;;;;;;;17.20;2.90;;;6.80;99.90;;;;;;5068962;28;20081;-75
2022/01/28 02:54:00;;;;;;;19.15;2.72;;;6.80;99.90;;;;;;5073473;28;20028;-75
2022/01/28 02:58:57;;;;;;;17.48;2.22;;;6.70;99.90;;;;;;5072509;28;20024;-75
2022/01/28 03:01:22;;;;;;;14.52;2.80;;;6.80;99.90;;;;;;5055991;28;20056;-75
2022/01/28 03:03:50;;;;;;;12.18;2.35;;;6.70;99.90;;;;;;5071617;28;20055;-75
2022/01/28 03:06:19;;;;;;;15.52;3.20;;;6.70;99.90;;;;;;5072138;28;20059;-75
2022/01/28 03:09:06;;;;;;;23.88;2.90;;;6.70;99.90;;;;;;5070004;28;20070;-75
2022/01/28 03:20:06;;;;;;;17.23;3.17;;;6.70;99.90;;;;;;5071606;28;20040;-74
2022/01/28 03:22:23;;;;;;;18.52;3.33;;;6.70;99.90;;;;;;5069884;28;20082;-74
2022/01/28 03:24:52;;;;;;;14.95;2.25;;;6.70;99.90;;;;;;5073625;28;20028;-75
2022/01/28 03:27:39;;;;;;;17.38;3.20;;;6.70;99.90;;;;;;5069588;28;20505;-75
2022/01/28 03:30:04;;;;;;;18.80;3.38;;;6.60;99.90;;;;;;5071425;28;20485;-75
2022/01/28 03:32:30;;;;;;;18.15;3.17;;;6.70;99.90;;;;;;5071084;28;20047;-74
2022/01/28 03:34:55;;;;;;;16.08;2.65;;;6.70;99.90;;;;;;5072337;28;20377;-75
2022/01/28 03:37:22;;;;;;;19.13;2.20;;;6.60;99.90;;;;;;5068788;28;20045;-75
2022/01/28 03:39:47;;;;;;;17.05;2.53;;;6.60;99.90;;;;;;5071337;28;20032;-74
2022/01/28 03:42:13;;;;;;;15.00;3.40;;;6.60;99.90;;;;;;5072670;28;20013;-75
2022/01/28 03:44:38;;;;;;;22.45;3.25;;;6.60;99.90;;;;;;5072408;28;20039;-75
2022/01/28 03:47:04;;;;;;;16.92;3.17;;;6.60;99.90;;;;;;5070896;28;20086;-75
2022/01/28 03:49:30;;;;;;;18.80;2.85;;;6.60;99.90;;;;;;5070041;28;20032;-75
2022/01/28 03:51:55;;;;;;;15.40;2.80;;;6.70;99.90;;;;;;5071726;28;20104;-75
2022/01/28 03:54:21;;;;;;;14.02;2.97;;;6.70;99.90;;;;;;5069332;28;20459;-75
2022/01/28 03:56:47;;;;;;;21.42;2.83;;;6.70;99.90;;;;;;5071328;28;20086;-75
2022/01/28 03:59:13;;;;;;;15.98;3.42;;;6.80;99.90;;;;;;5071426;28;20484;-75
2022/01/28 04:01:40;;;;;;;21.08;3.25;;;6.90;99.90;;;;;;5069602;28;20024;-75
2022/01/28 04:12:20;;;;;;;21.05;2.92;;;6.70;99.90;;;;;;5071735;28;20040;-75
2022/01/28 04:15:04;;;;;;;21.08;3.05;;;6.60;99.90;;;;;;5070973;28;20044;-75
2022/01/28 04:17:29;;;;;;;17.58;3.35;;;6.70;99.90;;;;;;5066840;28;20020;-75
2022/01/28 04:19:55;;;;;;;15.48;2.97;;;6.70;99.90;;;;;;5069744;28;20025;-75
2022/01/28 04:22:21;;;;;;;16.55;2.85;;;6.70;99.90;;;;;;5069584;28;20033;-75
2022/01/28 04:24:47;;;;;;;21.55;3.42;;;6.80;99.90;;;;;;5053064;28;20025;-75
2022/01/28 04:27:12;;;;;;;26.67;3.75;;;6.80;99.90;;;;;;5069120;28;20045;-75
2022/01/28 04:29:38;;;;;;;19.95;3.03;;;6.70;99.90;;;;;;5070987;28;20024;-75
2022/01/28 04:35:26;;;;;;;13.30;2.33;;;6.60;99.90;;;;;;5083172;22;20059;-72
2022/01/28 04:38:07;;;;;;;24.58;3.15;;;6.60;99.90;;;;;;5068506;28;20024;-71
2022/01/28 04:40:39;;;;;;;23.63;2.97;;;6.60;99.90;;;;;;5057420;28;20021;-75
2022/01/28 04:43:21;;;;;;;15.00;2.55;;;6.50;99.90;;;;;;5064769;28;20031;-74
2022/01/28 04:46:06;;;;;;;16.85;3.15;;;6.60;99.90;;;;;;5071443;28;20036;-73
2022/01/28 04:49:02;;;;;;;18.58;3.20;;;6.60;99.90;;;;;;5071906;28;20486;-71
2022/01/28 04:54:35;;;;;;;18.67;3.28;;;6.50;99.90;;;;;;5060494;28;20142;-71
2022/01/28 04:59:49;;;;;;;26.05;2.97;;;6.40;99.90;;;;;;5066128;28;20151;-71
2022/01/28 05:02:55;;;;;;;16.20;2.72;;;6.30;99.90;;;;;;5063419;28;20024;-72
2022/01/28 05:05:16;;;;;;;19.80;3.15;;;6.40;99.90;;;;;;5063101;28;20033;-73
2022/01/28 05:24:58;;;;;;;21.40;3.80;;;6.10;99.90;;;;;;5069643;28;20126;-73
2022/01/28 05:27:13;;;;;;;25.55;4.15;;;6.00;99.90;;;;;;5071893;28;20040;-72
2022/01/28 05:29:42;;;;;;;14.77;3.88;;;6.10;99.90;;;;;;5070000;28;20036;-71
2022/01/28 05:32:09;;;;;;;20.05;4.00;;;6.00;99.90;;;;;;5063735;28;20248;-71
2022/01/28 05:34:35;;;;;;;13.40;3.88;;;6.00;99.90;;;;;;5074192;28;20032;-71
2022/01/28 05:37:01;;;;;;;15.38;3.83;;;6.00;99.90;;;;;;5077563;28;20030;-72
2022/01/28 05:39:27;;;;;;;12.27;3.47;;;5.80;99.90;;;;;;5086753;28;20024;-71
2022/01/28 05:41:52;;;;;;;19.77;4.35;;;5.90;99.90;;;;;;5076294;28;20028;-73
2022/01/28 05:44:18;;;;;;;15.32;4.20;;;5.90;99.90;;;;;;5086905;28;20544;-71
2022/01/28 05:46:45;;;;;;;26.45;5.15;;;5.90;99.90;;;;;;5087688;28;20028;-72
2022/01/28 05:49:13;;;;;;;18.35;4.88;;;5.90;99.90;;;;;;5086996;28;20036;-71
2022/01/28 05:51:38;;;;;;;21.40;4.63;;;5.80;99.90;;;;;;5091244;28;20062;-74
2022/01/28 05:54:04;;;;;;;18.08;4.80;;;5.80;99.90;;;;;;5090948;28;20376;-71
2022/01/28 05:56:31;;;;;;;27.95;5.75;;;5.80;99.90;;;;;;5088109;28;20486;-72
2022/01/28 05:58:56;;;;;;;21.85;5.22;;;5.80;99.90;;;;;;5077565;28;20039;-71
2022/01/28 06:01:22;;;;;;;21.13;5.25;;;5.80;99.90;;;;;;5089375;28;20075;-71
2022/01/28 06:03:48;;;;;;;27.77;5.97;;;5.70;99.90;;;;;;5087230;28;20437;-72
2022/01/28 06:06:22;;;;;;;25.15;5.55;;;5.70;99.90;;;;;;5087812;28;20480;-71
2022/01/28 06:08:53;;;;;;;22.00;5.90;;;5.80;99.90;;;;;;5089156;28;20403;-71
2022/01/28 06:11:19;;;;;;;21.73;5.38;;;5.80;99.90;;;;;;5086247;28;20033;-71
2022/01/28 06:13:45;;;;;;;22.95;6.07;;;5.80;99.90;;;;;;5092446;28;20020;-71
2022/01/28 06:16:13;;;;;;;20.90;5.90;;;5.80;99.90;;;;;;5092878;28;20536;-73
2022/01/28 06:18:39;;;;;;;24.52;6.13;;;5.70;99.90;;;;;;5085424;28;20052;-73
2022/01/28 06:21:05;;;;;;;25.52;5.95;;;5.70;99.90;;;;;;5087114;28;20066;-70
2022/01/28 06:23:31;;;;;;;25.05;6.32;;;5.70;99.90;;;;;;5089093;28;20341;-71
2022/01/28 06:25:57;;;;;;;21.50;6.95;;;5.70;99.90;;;;;;5087836;28;20036;-71
2022/01/28 06:28:22;;;;;;;22.27;6.72;;;5.70;99.90;;;;;;5091152;28;20379;-70
2022/01/28 06:30:48;;;;;;;26.63;7.50;;;5.70;99.90;;;;;;5085888;28;20468;-71
2022/01/28 06:33:14;;;;;;;19.05;7.32;;;5.70;99.90;;;;;;5086722;28;20029;-71
2022/01/28 06:35:41;;;;;;;18.85;7.40;;;5.60;99.90;;;;;;5080738;28;20039;-71
2022/01/28 06:38:07;;;;;;;17.27;7.03;;;5.60;99.90;;;;;;5088654;28;20024;-71
2022/01/28 06:40:33;;;;;;;28.67;7.95;;;5.60;99.90;;;;;;5087866;28;20151;-70
2022/01/28 06:42:59;;;;;;;20.38;7.10;;;5.60;99.90;;;;;;5089874;28;20114;-71
2022/01/28 06:45:24;;;;;;;24.02;7.93;;;5.60;99.90;;;;;;5087796;28;20391;-73
2022/01/28 06:47:50;;;;;;;21.25;8.40;;;5.60;99.90;;;;;;5084221;28;20052;-70
2022/01/28 06:50:15;;;;;;;23.83;8.50;;;5.60;99.90;;;;;;5084780;28;20024;-71
2022/01/28 06:52:42;;;;;;;32.90;9.63;;;5.60;99.90;;;;;;5082764;28;20296;-70
2022/01/28 06:55:10;;;;;;;25.95;8.68;;;5.60;99.90;;;;;;5086799;28;20652;-71
2022/01/28 06:57:35;;;;;;;24.23;9.23;;;5.50;99.90;;;;;;5081166;28;20431;-70
2022/01/28 07:00:03;;;;;;;21.33;7.90;;;5.60;99.90;;;;;;5085224;28;20111;-70
2022/01/28 07:02:29;;;;;;;18.55;8.63;;;5.60;99.90;;;;;;5090241;28;20032;-70
2022/01/28 07:04:55;;;;;;;19.05;8.30;;;5.60;99.90;;;;;;5090344;28;20043;-70
2022/01/28 07:07:22;;;;;;;27.67;9.02;;;5.60;99.90;;;;;;5084438;28;20040;-70
2022/01/28 07:09:48;;;;;;;23.50;9.43;;;5.60;99.90;;;;;;5089854;28;20025;-70
2022/01/28 07:12:15;;;;;;;26.80;9.30;;;5.60;99.90;;;;;;5083316;28;20430;-70
2022/01/28 07:14:41;;;;;;;28.38;8.95;;;5.50;99.90;;;;;;5086140;28;20063;-71
2022/01/28 07:17:07;;;;;;;25.70;9.27;;;5.50;99.90;;;;;;5085576;28;20451;-70
2022/01/28 07:19:32;;;;;;;24.13;9.10;;;5.50;99.90;;;;;;5085690;28;20097;-70
2022/01/28 07:21:58;;;;;;;35.15;10.25;;;5.50;99.90;;;;;;5085025;28;20055;-70
2022/01/28 07:24:24;;;;;;;30.98;11.27;;;5.50;99.90;;;;;;5088837;28;20020;-70
2022/01/28 07:26:51;;;;;;;26.73;11.45;;;5.50;99.90;;;;;;5081440;28;20028;-70
2022/01/28 07:29:17;;;;;;;27.90;11.65;;;5.50;99.90;;;;;;5080409;28;20024;-70
2022/01/28 07:31:43;;;;;;;25.98;10.40;;;5.50;99.90;;;;;;5088836;28;20021;-73
2022/01/28 07:34:09;;;;;;;32.65;11.63;;;5.50;99.90;;;;;;5090345;28;20479;-71
2022/01/28 07:36:36;;;;;;;30.88;11.93;;;5.50;99.90;;;;;;5091527;28;20076;-70
2022/01/28 07:39:06;;;;;;;30.15;11.13;;;5.40;99.90;;;;;;5071609;28;20047;-70
2022/01/28 07:41:35;;;;;;;18.65;10.35;;;5.40;99.90;;;;;;5090732;28;20028;-70
2022/01/28 07:44:01;;;;;;;21.08;9.13;;;5.40;99.90;;;;;;5090976;28;20028;-75
2022/01/28 07:46:27;;;;;;;15.93;7.53;;;5.30;99.90;;;;;;5081639;28;20063;-85
2022/01/28 07:48:54;;;;;;;23.10;9.10;;;5.30;99.90;;;;;;5093290;28;20058;-79
2022/01/28 07:51:21;;;;;;;27.45;10.70;;;5.30;99.90;;;;;;5075264;28;20032;-90
2022/01/28 07:53:46;;;;;;;27.30;10.85;;;5.30;99.90;;;;;;5084556;28;20081;-89
2022/01/28 07:56:13;;;;;;;26.92;11.77;;;5.40;99.90;;;;;;5074459;28;20056;-78
2022/01/28 07:58:39;;;;;;;22.42;9.70;;;5.30;99.90;;;;;;5092525;28;20048;-79
2022/01/28 08:01:05;;;;;;;23.08;10.13;;;5.40;99.90;;;;;;5088822;28;20128;-80
2022/01/28 08:03:30;;;;;;;26.58;10.77;;;5.40;99.90;;;;;;5088442;28;20098;-81
2022/01/28 08:05:56;;;;;;;26.45;11.20;;;5.40;99.90;;;;;;5085009;28;20036;-70
2022/01/28 08:08:22;;;;;;;27.98;13.60;;;5.40;99.90;;;;;;5071945;28;20043;-69
2022/01/28 08:10:48;;;;;;;26.70;10.80;;;5.40;99.90;;;;;;5092550;28;20113;-70
2022/01/28 08:13:14;;;;;;;25.73;9.85;;;5.40;99.90;;;;;;5085342;28;20439;-70
2022/01/28 08:15:40;;;;;;;25.73;11.02;;;5.30;99.90;;;;;;5086657;28;20458;-70
2022/01/28 08:18:07;;;;;;;25.23;10.15;;;5.30;99.90;;;;;;5091989;28;20039;-69
2022/01/28 08:20:33;;;;;;;30.00;11.98;;;5.30;99.90;;;;;;5087910;28;20066;-70
2022/01/28 08:23:00;;;;;;;31.10;13.50;;;5.40;99.90;;;;;;5091733;28;20069;-73
2022/01/28 08:25:27;;;;;;;30.30;12.88;;;5.40;99.90;;;;;;5080292;28;20367;-69
2022/01/28 08:27:53;;;;;;;33.72;13.50;;;5.40;99.90;;;;;;5091717;28;20032;-73
2022/01/28 08:30:22;;;;;;;25.38;13.77;;;5.40;99.90;;;;;;5087945;28;20487;-69
2022/01/28 08:32:49;;;;;;;37.13;14.10;;;5.40;99.90;;;;;;5091284;28;20115;-71
2022/01/28 08:35:15;;;;;;;34.53;14.18;;;5.40;99.90;;;;;;5084074;28;20042;-69
2022/01/28 08:37:41;;;;;;;29.17;13.35;;;5.50;99.90;;;;;;5090925;28;20070;-69
2022/01/28 08:40:09;;;;;;;26.45;14.02;;;5.60;99.90;;;;;;5083234;28;20028;-72
2022/01/28 08:42:35;;;;;;;26.60;13.57;;;5.70;99.90;;;;;;5086751;28;20110;-69
2022/01/28 08:45:01;;;;;;;29.38;15.10;;;5.70;99.90;;;;;;5086550;28;20024;-70
2022/01/28 08:47:27;;;;;;;36.45;15.50;;;5.70;99.90;;;;;;5085581;28;20047;-70
2022/01/28 08:49:52;;;;;;;33.15;18.10;;;5.80;99.90;;;;;;5077448;28;20024;-69
2022/01/28 08:52:18;;;;;;;30.48;15.77;;;5.80;99.90;;;;;;5095294;28;20031;-70
2022/01/28 08:54:44;;;;;;;46.72;18.95;;;5.90;99.90;;;;;;5095335;28;20032;-69
2022/01/28 08:57:10;;;;;;;37.13;18.83;;;5.90;99.90;;;;;;5085356;28;20024;-69
2022/01/28 08:59:37;;;;;;;39.80;18.73;;;5.90;99.90;;;;;;5090516;28;20109;-69
2022/01/28 09:02:03;;;;;;;42.67;18.80;;;5.90;99.90;;;;;;5094227;28;20032;-69
2022/01/28 09:04:28;;;;;;;38.33;19.73;;;6.00;99.90;;;;;;5093347;28;20059;-69
2022/01/28 09:06:54;;;;;;;43.63;21.55;;;6.00;99.90;;;;;;5094560;28;20472;-70
2022/01/28 09:09:20;;;;;;;44.83;21.92;;;6.10;99.90;;;;;;5092978;28;20103;-71
2022/01/28 09:14:13;;;;;;;50.83;22.67;;;6.20;99.90;;;;;;5095449;28;20032;-70
2022/01/28 09:16:40;;;;;;;43.60;21.85;;;6.20;99.90;;;;;;5089044;28;20063;-70
2022/01/28 09:19:06;;;;;;;47.10;22.58;;;6.10;99.90;;;;;;5075563;28;20047;-70
2022/01/28 09:21:32;;;;;;;51.45;24.45;;;6.10;99.90;;;;;;5093812;28;20457;-71
2022/01/28 09:23:57;;;;;;;48.88;24.35;;;6.20;99.90;;;;;;5093472;28;20032;-72
2022/01/28 09:26:23;;;;;;;49.15;24.30;;;6.20;99.90;;;;;;5094993;28;20055;-71
2022/01/28 09:28:49;;;;;;;57.50;24.60;;;6.20;99.90;;;;;;5094162;28;20069;-70
2022/01/28 09:31:14;;;;;;;45.83;24.70;;;6.30;99.90;;;;;;5091999;28;20055;-71
2022/01/28 09:33:40;;;;;;;48.83;25.25;;;6.30;99.90;;;;;;5074689;28;20070;-70
2022/01/28 09:36:07;;;;;;;52.30;24.33;;;6.40;99.90;;;;;;5092432;28;20047;-72
2022/01/28 09:38:33;;;;;;;50.00;23.83;;;6.50;99.90;;;;;;5094817;28;20437;-70
2022/01/28 09:41:02;;;;;;;45.30;22.52;;;6.50;99.90;;;;;;5093069;28;20020;-70
2022/01/28 09:43:28;;;;;;;44.85;22.48;;;6.50;99.90;;;;;;5091236;28;20018;-70
2022/01/28 09:45:54;;;;;;;48.65;23.23;;;6.60;99.90;;;;;;5091017;28;20027;-70
2022/01/28 09:48:19;;;;;;;51.75;25.15;;;6.70;99.90;;;;;;5087414;28;20031;-71
2022/01/28 09:50:46;;;;;;;52.38;24.95;;;6.70;99.90;;;;;;5091302;28;20115;-72
2022/01/28 09:53:13;;;;;;;52.15;25.15;;;6.70;99.90;;;;;;5093625;28;20281;-70
2022/01/28 09:55:39;;;;;;;53.75;27.77;;;6.70;99.90;;;;;;5090111;28;20046;-71
2022/01/28 09:58:05;;;;;;;54.30;29.67;;;6.80;99.90;;;;;;5088910;28;20056;-71
2022/01/28 10:00:33;;;;;;;66.20;29.10;;;6.90;99.90;;;;;;5087751;28;20103;-71
2022/01/28 10:03:04;;;;;;;73.40;33.70;;;6.80;99.90;;;;;;5066864;28;20025;-72
2022/01/28 10:05:42;;;;;;;77.38;34.38;;;6.70;99.90;;;;;;5090205;28;20028;-72
2022/01/28 10:08:16;;;;;;;95.00;38.35;;;6.60;99.90;;;;;;5091052;28;20067;-72
2022/01/28 10:10:50;;;;;;;103.38;43.28;;;6.60;99.90;;;;;;5093887;28;20032;-73
2022/01/28 10:13:29;;;;;;;111.47;45.22;;;6.70;99.90;;;;;;5092976;28;20059;-72
2022/01/28 10:16:12;;;;;;;115.60;44.67;;;6.70;99.90;;;;;;5086906;28;20025;-72
2022/01/28 10:18:51;;;;;;;127.57;48.17;;;6.80;99.90;;;;;;5086410;28;20102;-72
2022/01/28 10:21:39;;;;;;;113.43;48.72;;;6.70;99.90;;;;;;5090392;28;20032;-72
2022/01/28 10:24:13;;;;;;;131.93;51.20;;;6.80;99.90;;;;;;5084418;28;20548;-72
2022/01/28 10:26:55;;;;;;;130.05;51.63;;;6.70;99.90;;;;;;5091612;28;20127;-71
2022/01/28 10:29:31;;;;;;;123.95;48.25;;;6.80;99.90;;;;;;5087225;28;20502;-71
2022/01/28 10:31:59;;;;;;;128.15;49.50;;;6.70;99.90;;;;;;5088779;28;20184;-72
2022/01/28 10:34:26;;;;;;;125.38;46.67;;;6.80;99.90;;;;;;5091947;28;20066;-71
2022/01/28 10:37:08;;;;;;;120.63;49.65;;;6.90;99.90;;;;;;5092902;28;20036;-72
2022/01/28 10:39:54;;;;;;;138.15;56.28;;;6.90;99.90;;;;;;5081838;28;20028;-71
2022/01/28 10:42:33;;;;;;;132.85;57.42;;;7.00;99.90;;;;;;5087745;28;20040;-73
2022/01/28 10:45:05;;;;;;;142.27;56.28;;;7.00;99.90;;;;;;5083747;28;20031;-72
2022/01/28 10:47:30;;;;;;;122.57;50.67;;;7.10;99.90;;;;;;5084938;28;20079;-72
2022/01/28 10:49:56;;;;;;;122.80;51.03;;;7.20;99.90;;;;;;5081596;28;20060;-72
2022/01/28 10:52:35;;;;;;;124.38;52.67;;;7.20;99.90;;;;;;5089849;28;20109;-72
2022/01/28 10:55:01;;;;;;;125.57;53.28;;;7.30;99.90;;;;;;5089267;28;20077;-71
2022/01/28 10:57:30;;;;;;;122.55;52.50;;;7.40;99.90;;;;;;5084190;28;20032;-71
2022/01/28 10:59:56;;;;;;;115.68;51.45;;;7.50;99.90;;;;;;5086024;28;20024;-71
2022/01/28 11:02:27;;;;;;;137.18;57.25;;;7.50;99.90;;;;;;5083732;28;20032;-71
2022/01/28 11:04:56;;;;;;;122.93;54.38;;;7.60;99.90;;;;;;5090834;28;20067;-71
2022/01/28 11:07:23;;;;;;;114.43;51.30;;;7.80;99.90;;;;;;5081131;28;20040;-72
2022/01/28 11:09:49;;;;;;;103.40;50.05;;;7.90;99.90;;;;;;5084084;28;20024;-71
2022/01/28 11:12:16;;;;;;;105.75;48.95;;;7.90;99.90;;;;;;5089111;28;20472;-71
2022/01/28 11:14:42;;;;;;;100.15;48.40;;;8.00;99.90;;;;;;5086839;28;20031;-72
2022/01/28 11:17:10;;;;;;;95.43;45.25;;;8.00;99.90;;;;;;5096197;28;20038;-73
2022/01/28 11:19:38;;;;;;;88.40;44.17;;;8.10;99.90;;;;;;5090642;28;20043;-71
2022/01/28 11:22:20;;;;;;;93.38;44.78;;;8.20;99.90;;;;;;5091701;28;20032;-72
2022/01/28 11:24:56;;;;;;;84.07;43.95;;;8.20;99.90;;;;;;5085624;28;20032;-73
2022/01/28 11:27:31;;;;;;;87.25;40.97;;;8.30;99.90;;;;;;5073007;28;20039;-72
2022/01/28 11:30:16;;;;;;;81.65;42.70;;;8.20;99.90;;;;;;5083106;28;20046;-72
2022/01/28 11:33:00;;;;;;;66.50;35.20;;;8.40;99.90;;;;;;5090269;28;20115;-73
2022/01/28 11:35:38;;;;;;;67.15;36.90;;;8.40;99.90;;;;;;5091814;28;20749;-71
2022/01/28 11:38:29;;;;;;;71.28;36.38;;;8.40;99.90;;;;;;5087518;28;20024;-71
2022/01/28 11:41:11;;;;;;;67.22;35.55;;;8.50;99.90;;;;;;5083544;28;20020;-71
2022/01/28 11:43:47;;;;;;;67.43;33.57;;;8.50;99.90;;;;;;5085660;28;20055;-72
2022/01/28 11:46:24;;;;;;;65.05;30.92;;;8.60;99.90;;;;;;5086953;28;20513;-73
2022/01/28 11:49:02;;;;;;;55.10;28.42;;;8.50;99.90;;;;;;5089966;28;20031;-71
2022/01/28 11:51:41;;;;;;;49.88;28.27;;;8.50;99.90;;;;;;5085203;28;20484;-73
2022/01/28 11:54:10;;;;;;;64.78;29.73;;;8.50;99.90;;;;;;5078187;28;20047;-72
2022/01/28 11:56:40;;;;;;;57.58;28.58;;;8.60;99.90;;;;;;5087728;28;20031;-71
2022/01/28 11:59:08;;;;;;;57.63;28.30;;;8.60;99.90;;;;;;5084081;28;20024;-74
2022/01/28 12:01:39;;;;;;;62.78;31.25;;;8.70;99.90;;;;;;5086302;28;20032;-73
2022/01/28 12:04:26;;;;;;;59.85;30.17;;;8.70;99.90;;;;;;5085267;28;20028;-73
2022/01/28 12:06:58;;;;;;;54.83;29.42;;;8.70;99.90;;;;;;5092177;28;20036;-72
2022/01/28 12:09:25;;;;;;;62.03;30.98;;;8.70;99.90;;;;;;5083106;28;20024;-72
2022/01/28 12:11:51;;;;;;;60.00;30.60;;;8.80;99.90;;;;;;5089281;28;20058;-72
2022/01/28 12:14:18;;;;;;;59.50;30.33;;;8.80;99.90;;;;;;5086920;28;20471;-72
2022/01/28 12:16:48;;;;;;;55.45;28.80;;;8.90;99.90;;;;;;5090187;28;20035;-73
2022/01/28 12:19:30;;;;;;;59.15;28.77;;;9.00;99.90;;;;;;5085768;28;20024;-72
2022/01/28 12:22:22;;;;;;;57.65;25.30;;;9.20;99.90;;;;;;5072243;28;20561;-72
2022/01/28 12:24:48;;;;;;;47.20;23.35;;;9.30;99.90;;;;;;5083899;28;20095;-79
2022/01/28 12:27:17;;;;;;;50.08;25.73;;;9.30;99.90;;;;;;5085372;28;20181;-71
2022/01/28 12:29:45;;;;;;;43.10;22.95;;;9.30;99.90;;;;;;5084784;28;20487;-80
2022/01/28 12:32:12;;;;;;;43.42;19.08;;;9.40;99.90;;;;;;5070790;28;20017;-71
2022/01/28 12:34:43;;;;;;;30.75;15.02;;;9.50;99.90;;;;;;5089245;28;20032;-71
2022/01/28 12:37:09;;;;;;;30.08;11.57;;;9.50;99.90;;;;;;5085626;28;20032;-71
2022/01/28 12:39:38;;;;;;;25.88;10.88;;;9.50;99.90;;;;;;5081092;28;20033;-71
2022/01/28 12:42:21;;;;;;;24.05;9.45;;;9.50;99.90;;;;;;5082857;28;20020;-71
2022/01/28 12:44:52;;;;;;;19.35;7.82;;;9.50;99.90;;;;;;5090747;28;20107;-72
2022/01/28 12:47:18;;;;;;;14.50;7.45;;;9.50;99.90;;;;;;5090709;28;20086;-71
2022/01/28 12:49:46;;;;;;;19.52;7.63;;;9.50;99.90;;;;;;5085956;28;20020;-74
2022/01/28 12:52:12;;;;;;;17.27;6.55;;;9.50;99.90;;;;;;5091652;28;20032;-74
2022/01/28 12:54:44;;;;;;;18.38;6.95;;;9.40;99.90;;;;;;5086803;28;20364;-71
2022/01/28 12:57:15;;;;;;;19.73;6.60;;;9.30;99.90;;;;;;5080525;28;20048;-71
2022/01/28 12:59:45;;;;;;;19.52;7.93;;;9.30;99.90;;;;;;5085445;28;20530;-71
2022/01/28 13:02:11;;;;;;;18.25;8.43;;;9.30;99.90;;;;;;5085148;28;20119;-73
2022/01/28 13:05:35;;;;;;;16.58;8.60;;;9.30;99.90;;;;;;5091413;28;20383;-72
2022/01/28 13:10:29;;;;;;;20.95;7.50;;;9.30;99.90;;;;;;5081132;28;20046;-82
2022/01/28 13:13:06;;;;;;;19.05;7.30;;;9.40;99.90;;;;;;5086640;28;20104;-77
2022/01/28 13:15:32;;;;;;;18.27;6.22;;;9.30;99.90;;;;;;5086358;28;20024;-71
2022/01/28 13:17:59;;;;;;;14.95;6.45;;;9.40;99.90;;;;;;5083989;28;20107;-72
2022/01/28 13:20:38;;;;;;;19.83;6.18;;;9.50;99.90;;;;;;5085547;28;20379;-72
2022/01/28 13:23:03;;;;;;;18.13;5.97;;;9.50;99.90;;;;;;5088232;28;20027;-72
2022/01/28 13:25:29;;;;;;;16.15;6.72;;;9.50;99.90;;;;;;5085924;28;20028;-76
2022/01/28 13:28:00;;;;;;;18.17;6.97;;;9.50;99.90;;;;;;5086705;28;20071;-77
2022/01/28 13:30:27;;;;;;;21.98;6.60;;;9.50;99.90;;;;;;5084659;28;20024;-80
2022/01/28 13:33:02;;;;;;;15.93;5.82;;;9.40;99.90;;;;;;5081193;28;20119;-72
2022/01/28 13:35:28;;;;;;;18.75;6.28;;;9.50;99.90;;;;;;5081687;28;20027;-75
2022/01/28 13:38:01;;;;;;;18.92;6.25;;;9.50;99.90;;;;;;5076723;28;20031;-73
2022/01/28 13:40:27;;;;;;;15.35;5.63;;;9.60;99.90;;;;;;5093993;28;20384;-77
2022/01/28 13:43:09;;;;;;;9.35;5.07;;;9.60;99.90;;;;;;5094774;28;20024;-77
2022/01/28 13:45:59;;;;;;;14.57;5.53;;;9.60;99.90;;;;;;5090120;28;20493;-76
2022/01/28 13:48:37;;;;;;;21.40;6.00;;;9.60;99.90;;;;;;5084528;28;20036;-80
2022/01/28 13:51:26;;;;;;;12.30;5.60;;;9.70;99.90;;;;;;5094748;28;20031;-79
2022/01/28 13:56:42;;;;;;;16.92;5.95;;;9.60;99.90;;;;;;5092601;28;20383;-78
2022/01/28 13:59:30;;;;;;;16.85;6.55;;;9.50;99.90;;;;;;5085447;28;20028;-78
2022/01/28 14:01:59;;;;;;;16.10;6.93;;;9.50;99.90;;;;;;5093070;28;20344;-79
2022/01/28 14:04:32;;;;;;;15.60;5.72;;;9.50;99.90;;;;;;5095263;28;20494;-76
2022/01/28 14:07:13;;;;;;;18.27;8.75;;;9.50;99.90;;;;;;5089925;28;20043;-75
2022/01/28 14:09:53;;;;;;;34.47;15.65;;;9.40;99.90;;;;;;5093816;28;20024;-77
2022/01/28 14:12:49;;;;;;;39.13;21.85;;;9.40;99.90;;;;;;5094224;28;20023;-73
2022/01/28 14:17:52;;;;;;;44.33;26.45;;;9.50;99.90;;;;;;5094859;28;20028;-76
2022/01/28 14:20:17;;;;;;;39.08;23.30;;;9.50;99.90;;;;;;5093400;28;20028;-76
2022/01/28 14:22:43;;;;;;;39.28;23.33;;;9.50;99.90;;;;;;5089885;28;20043;-76
2022/01/28 14:25:09;;;;;;;44.15;23.35;;;9.50;99.90;;;;;;5093359;28;20609;-76